XNO232 EYVI-EKCH
Flight info
| Callsign | XNO232 |
|---|---|
| Flight time | 1h 13m |
| Altitude | 34000 |
| Route | ELEKA DCT IRZUK DCT ADAXA DCT NINTA DCT KOLJA DCT ELVIX L975 TIDVU |
| Aircraft | A321/M-SDE3FGHIRWY/LB1 |
Departure
| Time | 2026-04-21 19:09 |
|---|---|
| Airport | Vilnius International Airport (EYVI) |
Arrival
| Time | 2026-04-21 20:23 |
|---|---|
| Airport | Copenhagen Kastrup Airport (EKCH) |
| Time | Latitude | Longitude | Altitude | Speed | Heading |
|---|---|---|---|---|---|
| 2026-04-21 18:11 | 54.63988 | 25.28315 | 636 ft | 0 kts | 76° |
| 2026-04-21 18:38 | 54.63988 | 25.28314 | 636 ft | 0 kts | 76° |
| 2026-04-21 18:39 | 54.63988 | 25.28315 | 636 ft | 0 kts | 76° |
| 2026-04-21 18:39 | 54.63988 | 25.28314 | 636 ft | 0 kts | 76° |
| 2026-04-21 18:58 | 54.63986 | 25.28301 | 636 ft | 4 kts | 76° |
| 2026-04-21 18:59 | 54.63980 | 25.28265 | 646 ft | 3 kts | 76° |
| 2026-04-21 18:59 | 54.63978 | 25.28227 | 642 ft | 4 kts | 130° |
| 2026-04-21 18:59 | 54.63997 | 25.28212 | 637 ft | 4 kts | 166° |
| 2026-04-21 18:59 | 54.64007 | 25.28208 | 636 ft | 0 kts | 166° |
| 2026-04-21 19:02 | 54.64003 | 25.28210 | 637 ft | 3 kts | 166° |
| 2026-04-21 19:02 | 54.63971 | 25.28223 | 639 ft | 7 kts | 166° |
| 2026-04-21 19:02 | 54.63903 | 25.28250 | 635 ft | 11 kts | 167° |
| 2026-04-21 19:02 | 54.63829 | 25.28279 | 633 ft | 10 kts | 168° |
| 2026-04-21 19:03 | 54.63748 | 25.28309 | 623 ft | 13 kts | 167° |
| 2026-04-21 19:03 | 54.63666 | 25.28341 | 625 ft | 12 kts | 167° |
| 2026-04-21 19:03 | 54.63583 | 25.28368 | 626 ft | 13 kts | 181° |
| 2026-04-21 19:03 | 54.63491 | 25.28314 | 611 ft | 15 kts | 202° |
| 2026-04-21 19:04 | 54.63394 | 25.28247 | 614 ft | 15 kts | 202° |
| 2026-04-21 19:04 | 54.63304 | 25.28184 | 618 ft | 13 kts | 202° |
| 2026-04-21 19:04 | 54.63218 | 25.28125 | 608 ft | 13 kts | 202° |
| 2026-04-21 19:04 | 54.63137 | 25.28069 | 613 ft | 12 kts | 201° |
| 2026-04-21 19:05 | 54.63059 | 25.28016 | 614 ft | 12 kts | 201° |
| 2026-04-21 19:05 | 54.62981 | 25.27962 | 612 ft | 12 kts | 201° |
| 2026-04-21 19:05 | 54.62902 | 25.27907 | 603 ft | 13 kts | 201° |
| 2026-04-21 19:05 | 54.62819 | 25.27850 | 601 ft | 13 kts | 201° |
| 2026-04-21 19:06 | 54.62737 | 25.27794 | 601 ft | 12 kts | 202° |
| 2026-04-21 19:06 | 54.62664 | 25.27742 | 601 ft | 11 kts | 202° |
| 2026-04-21 19:06 | 54.62597 | 25.27694 | 601 ft | 11 kts | 201° |
| 2026-04-21 19:06 | 54.62556 | 25.27667 | 603 ft | 2 kts | 200° |
| 2026-04-21 19:07 | 54.62534 | 25.27660 | 603 ft | 6 kts | 182° |
| 2026-04-21 19:07 | 54.62481 | 25.27709 | 610 ft | 9 kts | 141° |
| 2026-04-21 19:07 | 54.62438 | 25.27769 | 617 ft | 8 kts | 137° |
| 2026-04-21 19:07 | 54.62427 | 25.27870 | 620 ft | 9 kts | 64° |
| 2026-04-21 19:08 | 54.62461 | 25.27914 | 613 ft | 0 kts | 25° |
| 2026-04-21 19:08 | 54.62503 | 25.27946 | 604 ft | 33 kts | 22° |
| 2026-04-21 19:08 | 54.62977 | 25.28274 | 604 ft | 110 kts | 22° |
| 2026-04-21 19:08 | 54.63881 | 25.28901 | 642 ft | 167 kts | 22° |
| 2026-04-21 19:09 | 54.64995 | 25.29738 | 1220 ft | 171 kts | 21° |
| 2026-04-21 19:09 | 54.66088 | 25.30526 | 2016 ft | 171 kts | 21° |
| 2026-04-21 19:09 | 54.67215 | 25.31316 | 2506 ft | 181 kts | 21° |
| 2026-04-21 19:09 | 54.68435 | 25.32161 | 2745 ft | 196 kts | 21° |
| 2026-04-21 19:10 | 54.69742 | 25.33059 | 2987 ft | 210 kts | 21° |
| 2026-04-21 19:10 | 54.71143 | 25.34014 | 3203 ft | 224 kts | 21° |
| 2026-04-21 19:10 | 54.72663 | 25.35046 | 3398 ft | 245 kts | 21° |
| 2026-04-21 19:10 | 54.74244 | 25.36136 | 4090 ft | 245 kts | 21° |
| 2026-04-21 19:11 | 54.75833 | 25.37235 | 4784 ft | 247 kts | 21° |
| 2026-04-21 19:11 | 54.77436 | 25.38343 | 5462 ft | 249 kts | 21° |
| 2026-04-21 19:11 | 54.79085 | 25.39285 | 6094 ft | 252 kts | 5° |
| 2026-04-21 19:11 | 54.80795 | 25.38787 | 6669 ft | 256 kts | 332° |
| 2026-04-21 19:12 | 54.81751 | 25.37516 | 6793 ft | 269 kts | 307° |
| 2026-04-21 19:12 | 54.82834 | 25.33560 | 7533 ft | 276 kts | 288° |
| 2026-04-21 19:12 | 54.83387 | 25.30344 | 8178 ft | 280 kts | 285° |
| 2026-04-21 19:12 | 54.83826 | 25.27051 | 8854 ft | 281 kts | 273° |
| 2026-04-21 19:13 | 54.83527 | 25.23710 | 9466 ft | 284 kts | 248° |
| 2026-04-21 19:13 | 54.82468 | 25.20819 | 10045 ft | 288 kts | 224° |
| 2026-04-21 19:13 | 54.80782 | 25.18868 | 10386 ft | 302 kts | 202° |
| 2026-04-21 19:13 | 54.78759 | 25.17478 | 10502 ft | 324 kts | 202° |
| 2026-04-21 19:14 | 54.76643 | 25.15861 | 10652 ft | 342 kts | 211° |
| 2026-04-21 19:14 | 54.74812 | 25.13121 | 10829 ft | 357 kts | 232° |
| 2026-04-21 19:14 | 54.73568 | 25.09320 | 11035 ft | 372 kts | 250° |
| 2026-04-21 19:14 | 54.73039 | 25.04912 | 11429 ft | 379 kts | 268° |
| 2026-04-21 19:15 | 54.73338 | 25.00369 | 11905 ft | 383 kts | 287° |
| 2026-04-21 19:15 | 54.74228 | 24.96017 | 12509 ft | 385 kts | 290° |
| 2026-04-21 19:15 | 54.75160 | 24.91657 | 13017 ft | 388 kts | 290° |
| 2026-04-21 19:15 | 54.76115 | 24.87257 | 13507 ft | 392 kts | 290° |
| 2026-04-21 19:16 | 54.77083 | 24.82823 | 14027 ft | 395 kts | 290° |
| 2026-04-21 19:16 | 54.78045 | 24.78362 | 14523 ft | 397 kts | 290° |
| 2026-04-21 19:16 | 54.79005 | 24.73852 | 15002 ft | 400 kts | 290° |
| 2026-04-21 19:16 | 54.79972 | 24.69310 | 15467 ft | 403 kts | 291° |
| 2026-04-21 19:17 | 54.82337 | 24.60446 | 16374 ft | 408 kts | 295° |
| 2026-04-21 19:17 | 54.83548 | 24.55976 | 16812 ft | 411 kts | 295° |
| 2026-04-21 19:17 | 54.84763 | 24.51475 | 17236 ft | 413 kts | 295° |
| 2026-04-21 19:18 | 54.85986 | 24.46938 | 17671 ft | 416 kts | 295° |
| 2026-04-21 19:18 | 54.87214 | 24.42384 | 18089 ft | 418 kts | 295° |
| 2026-04-21 19:18 | 54.88448 | 24.37792 | 18494 ft | 421 kts | 295° |
| 2026-04-21 19:18 | 54.89686 | 24.33169 | 18895 ft | 423 kts | 295° |
| 2026-04-21 19:19 | 54.90927 | 24.28520 | 19293 ft | 426 kts | 295° |
| 2026-04-21 19:19 | 54.92171 | 24.23837 | 19683 ft | 428 kts | 295° |
| 2026-04-21 19:19 | 54.93420 | 24.19126 | 20066 ft | 430 kts | 295° |
| 2026-04-21 19:19 | 54.94676 | 24.14388 | 20438 ft | 433 kts | 295° |
| 2026-04-21 19:20 | 54.95940 | 24.09623 | 20799 ft | 435 kts | 295° |
| 2026-04-21 19:20 | 54.97208 | 24.04829 | 21165 ft | 437 kts | 294° |
| 2026-04-21 19:20 | 54.98481 | 24.00002 | 21518 ft | 440 kts | 294° |
| 2026-04-21 19:20 | 54.99755 | 23.95150 | 21852 ft | 442 kts | 294° |
| 2026-04-21 19:21 | 55.01034 | 23.90271 | 22189 ft | 444 kts | 294° |
| 2026-04-21 19:21 | 55.02317 | 23.85366 | 22527 ft | 446 kts | 294° |
| 2026-04-21 19:21 | 55.03608 | 23.80436 | 22861 ft | 448 kts | 294° |
| 2026-04-21 19:21 | 55.04905 | 23.75468 | 23188 ft | 450 kts | 294° |
| 2026-04-21 19:22 | 55.06204 | 23.70486 | 23500 ft | 452 kts | 294° |
| 2026-04-21 19:22 | 55.07507 | 23.65477 | 23801 ft | 455 kts | 294° |
| 2026-04-21 19:22 | 55.08812 | 23.60441 | 24102 ft | 457 kts | 294° |
| 2026-04-21 19:22 | 55.10120 | 23.55379 | 24388 ft | 459 kts | 294° |
| 2026-04-21 19:23 | 55.11432 | 23.50293 | 24667 ft | 460 kts | 294° |
| 2026-04-21 19:23 | 55.12750 | 23.45171 | 24951 ft | 462 kts | 294° |
| 2026-04-21 19:23 | 55.14068 | 23.40036 | 25230 ft | 464 kts | 294° |
| 2026-04-21 19:23 | 55.15387 | 23.34889 | 26384 ft | 465 kts | 298° |
| 2026-04-21 19:24 | 55.16718 | 23.29694 | 26595 ft | 469 kts | 299° |
| 2026-04-21 19:24 | 55.18051 | 23.24475 | 26901 ft | 471 kts | 299° |
| 2026-04-21 19:24 | 55.19382 | 23.19246 | 27273 ft | 470 kts | 299° |
| 2026-04-21 19:24 | 55.20711 | 23.14015 | 27621 ft | 469 kts | 299° |
| 2026-04-21 19:25 | 55.22033 | 23.08793 | 28036 ft | 468 kts | 299° |
| 2026-04-21 19:25 | 55.23346 | 23.03583 | 28444 ft | 467 kts | 299° |
| 2026-04-21 19:25 | 55.24690 | 22.98428 | 28834 ft | 465 kts | 301° |
| 2026-04-21 19:25 | 55.25617 | 22.95039 | 29086 ft | 464 kts | 302° |
| 2026-04-21 19:26 | 55.27048 | 22.89992 | 29469 ft | 462 kts | 302° |
| 2026-04-21 19:26 | 55.28501 | 22.84963 | 29851 ft | 461 kts | 302° |
| 2026-04-21 19:26 | 55.29948 | 22.79940 | 30220 ft | 461 kts | 302° |
| 2026-04-21 19:26 | 55.31378 | 22.74910 | 30526 ft | 460 kts | 302° |
| 2026-04-21 19:27 | 55.32792 | 22.69869 | 30811 ft | 460 kts | 302° |
| 2026-04-21 19:27 | 55.34197 | 22.64819 | 31076 ft | 460 kts | 301° |
| 2026-04-21 19:27 | 55.35592 | 22.59758 | 31392 ft | 460 kts | 301° |
| 2026-04-21 19:27 | 55.36978 | 22.54700 | 31683 ft | 460 kts | 301° |
| 2026-04-21 19:28 | 55.38365 | 22.49631 | 31966 ft | 460 kts | 301° |
| 2026-04-21 19:28 | 55.39750 | 22.44568 | 32229 ft | 460 kts | 301° |
| 2026-04-21 19:28 | 55.41138 | 22.39496 | 32504 ft | 460 kts | 301° |
| 2026-04-21 19:28 | 55.42527 | 22.34420 | 32778 ft | 460 kts | 301° |
| 2026-04-21 19:29 | 55.43914 | 22.29337 | 33047 ft | 460 kts | 301° |
| 2026-04-21 19:29 | 55.45298 | 22.24253 | 33309 ft | 461 kts | 301° |
| 2026-04-21 19:29 | 55.46680 | 22.19161 | 33579 ft | 461 kts | 301° |
| 2026-04-21 19:29 | 55.48062 | 22.14063 | 33843 ft | 461 kts | 301° |
| 2026-04-21 19:30 | 55.49440 | 22.08971 | 34100 ft | 461 kts | 300° |
| 2026-04-21 19:30 | 55.50821 | 22.03862 | 34167 ft | 461 kts | 300° |
| 2026-04-21 19:30 | 55.53571 | 21.93639 | 34191 ft | 461 kts | 300° |
| 2026-04-21 19:31 | 55.56311 | 21.83395 | 34194 ft | 461 kts | 300° |
| 2026-04-21 19:31 | 55.59042 | 21.73156 | 34184 ft | 461 kts | 300° |
| 2026-04-21 19:32 | 55.61769 | 21.62905 | 34198 ft | 461 kts | 300° |
| 2026-04-21 19:32 | 55.64483 | 21.52618 | 34198 ft | 461 kts | 300° |
| 2026-04-21 19:33 | 55.67182 | 21.42311 | 34207 ft | 461 kts | 300° |
| 2026-04-21 19:33 | 55.69880 | 21.32000 | 34211 ft | 461 kts | 300° |
| 2026-04-21 19:34 | 55.72573 | 21.21676 | 34189 ft | 461 kts | 300° |
| 2026-04-21 19:34 | 55.75255 | 21.11336 | 34212 ft | 461 kts | 299° |
| 2026-04-21 19:35 | 55.79263 | 20.95808 | 34227 ft | 461 kts | 299° |
| 2026-04-21 19:36 | 55.81925 | 20.85441 | 34226 ft | 461 kts | 299° |
| 2026-04-21 19:36 | 55.84564 | 20.75061 | 34236 ft | 461 kts | 299° |
| 2026-04-21 19:37 | 55.87205 | 20.64654 | 34225 ft | 461 kts | 299° |
| 2026-04-21 19:37 | 55.89840 | 20.54260 | 34241 ft | 460 kts | 299° |
| 2026-04-21 19:38 | 55.92464 | 20.43852 | 34244 ft | 460 kts | 299° |
| 2026-04-21 19:38 | 55.95073 | 20.33404 | 34248 ft | 460 kts | 298° |
| 2026-04-21 19:39 | 55.97669 | 20.22972 | 34261 ft | 460 kts | 298° |
| 2026-04-21 19:39 | 56.00261 | 20.12508 | 34237 ft | 460 kts | 298° |
| 2026-04-21 19:40 | 56.02845 | 20.02048 | 34263 ft | 460 kts | 298° |
| 2026-04-21 19:40 | 56.05424 | 19.91581 | 34270 ft | 460 kts | 298° |
| 2026-04-21 19:41 | 56.07983 | 19.81109 | 34271 ft | 460 kts | 298° |
| 2026-04-21 19:41 | 56.10533 | 19.70601 | 34244 ft | 460 kts | 298° |
| 2026-04-21 19:42 | 56.13078 | 19.60109 | 34260 ft | 459 kts | 297° |
| 2026-04-21 19:42 | 56.15613 | 19.49619 | 34273 ft | 458 kts | 297° |
| 2026-04-21 19:43 | 56.18131 | 19.39105 | 34273 ft | 458 kts | 297° |
| 2026-04-21 19:43 | 56.20637 | 19.28595 | 34279 ft | 458 kts | 297° |
| 2026-04-21 19:44 | 56.23140 | 19.18081 | 34256 ft | 458 kts | 297° |
| 2026-04-21 19:44 | 56.25632 | 19.07559 | 34288 ft | 457 kts | 297° |
| 2026-04-21 19:45 | 56.28035 | 18.96973 | 34285 ft | 459 kts | 291° |
| 2026-04-21 19:45 | 56.28980 | 18.85540 | 34283 ft | 468 kts | 272° |
| 2026-04-21 19:46 | 56.28021 | 18.73890 | 34285 ft | 473 kts | 261° |
| 2026-04-21 19:46 | 56.26726 | 18.62290 | 34263 ft | 473 kts | 262° |
| 2026-04-21 19:47 | 56.25425 | 18.50680 | 34258 ft | 474 kts | 262° |
| 2026-04-21 19:47 | 56.24102 | 18.39062 | 34261 ft | 475 kts | 262° |
| 2026-04-21 19:48 | 56.22749 | 18.27441 | 34272 ft | 475 kts | 261° |
| 2026-04-21 19:48 | 56.21146 | 18.15913 | 34275 ft | 477 kts | 257° |
| 2026-04-21 19:49 | 56.19327 | 18.04445 | 34287 ft | 477 kts | 257° |
| 2026-04-21 19:49 | 56.17520 | 17.92988 | 34272 ft | 477 kts | 258° |
| 2026-04-21 19:50 | 56.16053 | 17.83374 | 34278 ft | 477 kts | 258° |
| 2026-04-21 19:50 | 56.14022 | 17.70028 | 34291 ft | 477 kts | 258° |
| 2026-04-21 19:51 | 56.12254 | 17.58569 | 34316 ft | 477 kts | 258° |
| 2026-04-21 19:51 | 56.10467 | 17.47113 | 34301 ft | 478 kts | 258° |
| 2026-04-21 19:52 | 56.08671 | 17.35634 | 34293 ft | 478 kts | 258° |
| 2026-04-21 19:52 | 56.06868 | 17.24166 | 34271 ft | 479 kts | 258° |
| 2026-04-21 19:53 | 56.05039 | 17.12698 | 34289 ft | 480 kts | 257° |
| 2026-04-21 19:53 | 56.03194 | 17.01213 | 34291 ft | 480 kts | 257° |
| 2026-04-21 19:54 | 56.01346 | 16.89740 | 34296 ft | 481 kts | 257° |
| 2026-04-21 19:54 | 55.99437 | 16.78293 | 34304 ft | 482 kts | 255° |
| 2026-04-21 19:55 | 55.97216 | 16.66982 | 34317 ft | 483 kts | 252° |
| 2026-04-21 19:55 | 55.94833 | 16.55850 | 34284 ft | 479 kts | 252° |
| 2026-04-21 19:56 | 55.92486 | 16.44754 | 34273 ft | 475 kts | 253° |
| 2026-04-21 19:56 | 55.90232 | 16.33780 | 34318 ft | 467 kts | 253° |
| 2026-04-21 19:57 | 55.88023 | 16.23003 | 34312 ft | 460 kts | 253° |
| 2026-04-21 19:57 | 55.85814 | 16.12361 | 34323 ft | 457 kts | 253° |
| 2026-04-21 19:58 | 55.83590 | 16.01778 | 34323 ft | 455 kts | 252° |
| 2026-04-21 19:58 | 55.81360 | 15.91272 | 34320 ft | 453 kts | 252° |
| 2026-04-21 19:59 | 55.79140 | 15.80816 | 34326 ft | 451 kts | 252° |
| 2026-04-21 19:59 | 55.76932 | 15.70417 | 34331 ft | 449 kts | 252° |
| 2026-04-21 19:59 | 55.75827 | 15.65229 | 34193 ft | 451 kts | 252° |
| 2026-04-21 20:00 | 55.74687 | 15.59888 | 33475 ft | 460 kts | 252° |
| 2026-04-21 20:00 | 55.73556 | 15.54631 | 33105 ft | 461 kts | 252° |
| 2026-04-21 20:00 | 55.72409 | 15.49326 | 32827 ft | 460 kts | 252° |
| 2026-04-21 20:00 | 55.71266 | 15.44037 | 32560 ft | 459 kts | 252° |
| 2026-04-21 20:01 | 55.70127 | 15.38760 | 32292 ft | 458 kts | 252° |
| 2026-04-21 20:01 | 55.68987 | 15.33497 | 32026 ft | 457 kts | 252° |
| 2026-04-21 20:01 | 55.67827 | 15.28178 | 31722 ft | 456 kts | 252° |
| 2026-04-21 20:01 | 55.66691 | 15.22981 | 31199 ft | 461 kts | 252° |
| 2026-04-21 20:02 | 55.65908 | 15.19398 | 30545 ft | 463 kts | 252° |
| 2026-04-21 20:02 | 55.64361 | 15.12327 | 29199 ft | 467 kts | 252° |
| 2026-04-21 20:02 | 55.63178 | 15.06947 | 28208 ft | 471 kts | 251° |
| 2026-04-21 20:02 | 55.61983 | 15.01535 | 27254 ft | 474 kts | 251° |
| 2026-04-21 20:03 | 55.60782 | 14.96102 | 26177 ft | 475 kts | 251° |
| 2026-04-21 20:03 | 55.59573 | 14.90647 | 25097 ft | 477 kts | 251° |
| 2026-04-21 20:03 | 55.58359 | 14.85175 | 24042 ft | 479 kts | 251° |
| 2026-04-21 20:03 | 55.57125 | 14.79641 | 23127 ft | 476 kts | 251° |
| 2026-04-21 20:04 | 55.55910 | 14.74210 | 22366 ft | 472 kts | 251° |
| 2026-04-21 20:04 | 55.54712 | 14.68855 | 21634 ft | 466 kts | 250° |
| 2026-04-21 20:04 | 55.53927 | 14.65351 | 21155 ft | 461 kts | 250° |
| 2026-04-21 20:04 | 55.52751 | 14.60122 | 20435 ft | 455 kts | 250° |
| 2026-04-21 20:05 | 55.51589 | 14.54969 | 19748 ft | 449 kts | 250° |
| 2026-04-21 20:05 | 55.50437 | 14.49882 | 19073 ft | 443 kts | 250° |
| 2026-04-21 20:05 | 55.49299 | 14.44870 | 18381 ft | 438 kts | 250° |
| 2026-04-21 20:05 | 55.47810 | 14.38326 | 17508 ft | 430 kts | 250° |
| 2026-04-21 20:06 | 55.46700 | 14.33452 | 16910 ft | 426 kts | 250° |
| 2026-04-21 20:06 | 55.45957 | 14.30187 | 16493 ft | 423 kts | 249° |
| 2026-04-21 20:06 | 55.44863 | 14.25396 | 15909 ft | 419 kts | 249° |
| 2026-04-21 20:06 | 55.43777 | 14.20663 | 15340 ft | 415 kts | 249° |
| 2026-04-21 20:07 | 55.42697 | 14.15966 | 14780 ft | 411 kts | 249° |
| 2026-04-21 20:07 | 55.41779 | 14.11234 | 14264 ft | 407 kts | 257° |
| 2026-04-21 20:07 | 55.41290 | 14.06371 | 13728 ft | 401 kts | 266° |
| 2026-04-21 20:07 | 55.41207 | 14.01497 | 13237 ft | 397 kts | 272° |
| 2026-04-21 20:08 | 55.41220 | 13.96649 | 11998 ft | 396 kts | 272° |
| 2026-04-21 20:08 | 55.41581 | 13.91874 | 11013 ft | 394 kts | 287° |
| 2026-04-21 20:08 | 55.42247 | 13.87166 | 10494 ft | 397 kts | 285° |
| 2026-04-21 20:08 | 55.42864 | 13.82505 | 9943 ft | 379 kts | 285° |
| 2026-04-21 20:09 | 55.43420 | 13.78138 | 9385 ft | 353 kts | 285° |
| 2026-04-21 20:09 | 55.43931 | 13.74101 | 9249 ft | 320 kts | 285° |
| 2026-04-21 20:09 | 55.44402 | 13.70433 | 9043 ft | 299 kts | 285° |
| 2026-04-21 20:09 | 55.44865 | 13.66923 | 8596 ft | 291 kts | 286° |
| 2026-04-21 20:10 | 55.45327 | 13.63475 | 8194 ft | 288 kts | 285° |
| 2026-04-21 20:10 | 55.45789 | 13.60030 | 7791 ft | 289 kts | 285° |
| 2026-04-21 20:10 | 55.46248 | 13.56585 | 7391 ft | 288 kts | 285° |
| 2026-04-21 20:10 | 55.46701 | 13.53158 | 6984 ft | 284 kts | 285° |
| 2026-04-21 20:11 | 55.47146 | 13.49786 | 6628 ft | 281 kts | 285° |
| 2026-04-21 20:11 | 55.47587 | 13.46450 | 6362 ft | 277 kts | 285° |
| 2026-04-21 20:11 | 55.48023 | 13.43147 | 6346 ft | 278 kts | 285° |
| 2026-04-21 20:11 | 55.48459 | 13.39823 | 6300 ft | 277 kts | 285° |
| 2026-04-21 20:12 | 55.48889 | 13.36523 | 5911 ft | 276 kts | 285° |
| 2026-04-21 20:12 | 55.49316 | 13.33241 | 5545 ft | 274 kts | 285° |
| 2026-04-21 20:12 | 55.49739 | 13.29982 | 5189 ft | 271 kts | 286° |
| 2026-04-21 20:12 | 55.50159 | 13.26762 | 4983 ft | 269 kts | 286° |
| 2026-04-21 20:13 | 55.50687 | 13.23622 | 4981 ft | 265 kts | 300° |
| 2026-04-21 20:13 | 55.51790 | 13.21085 | 4987 ft | 259 kts | 324° |
| 2026-04-21 20:13 | 55.53305 | 13.19460 | 4708 ft | 254 kts | 336° |
| 2026-04-21 20:13 | 55.54886 | 13.18086 | 4333 ft | 253 kts | 336° |
| 2026-04-21 20:14 | 55.56463 | 13.16735 | 3980 ft | 250 kts | 336° |
| 2026-04-21 20:14 | 55.58025 | 13.15399 | 3640 ft | 248 kts | 335° |
| 2026-04-21 20:14 | 55.59573 | 13.14072 | 3284 ft | 246 kts | 335° |
| 2026-04-21 20:14 | 55.61104 | 13.12756 | 3017 ft | 243 kts | 335° |
| 2026-04-21 20:15 | 55.62622 | 13.11447 | 2998 ft | 243 kts | 334° |
| 2026-04-21 20:15 | 55.64112 | 13.10156 | 2984 ft | 228 kts | 334° |
| 2026-04-21 20:15 | 55.65475 | 13.08966 | 2994 ft | 215 kts | 334° |
| 2026-04-21 20:15 | 55.66812 | 13.07795 | 3027 ft | 214 kts | 334° |
| 2026-04-21 20:16 | 55.68137 | 13.06634 | 3010 ft | 208 kts | 334° |
| 2026-04-21 20:16 | 55.69393 | 13.05528 | 3010 ft | 197 kts | 334° |
| 2026-04-21 20:16 | 55.70608 | 13.04455 | 3016 ft | 194 kts | 334° |
| 2026-04-21 20:16 | 55.71811 | 13.03393 | 3005 ft | 193 kts | 334° |
| 2026-04-21 20:17 | 55.73012 | 13.02329 | 3003 ft | 192 kts | 334° |
| 2026-04-21 20:17 | 55.74207 | 13.01267 | 3002 ft | 192 kts | 334° |
| 2026-04-21 20:17 | 55.75398 | 13.00179 | 2996 ft | 193 kts | 330° |
| 2026-04-21 20:17 | 55.76268 | 12.98373 | 3001 ft | 200 kts | 295° |
| 2026-04-21 20:18 | 55.76411 | 12.96714 | 3001 ft | 206 kts | 270° |
| 2026-04-21 20:18 | 55.75954 | 12.93416 | 3005 ft | 209 kts | 256° |
| 2026-04-21 20:18 | 55.75503 | 12.90960 | 3005 ft | 209 kts | 256° |
| 2026-04-21 20:18 | 55.75045 | 12.88516 | 3007 ft | 209 kts | 255° |
| 2026-04-21 20:19 | 55.74567 | 12.86081 | 3006 ft | 210 kts | 250° |
| 2026-04-21 20:19 | 55.73680 | 12.84089 | 2963 ft | 204 kts | 224° |
| 2026-04-21 20:19 | 55.72633 | 12.82462 | 2723 ft | 198 kts | 224° |
| 2026-04-21 20:19 | 55.71608 | 12.80867 | 2464 ft | 195 kts | 225° |
| 2026-04-21 20:20 | 55.70595 | 12.79288 | 2203 ft | 193 kts | 225° |
| 2026-04-21 20:20 | 55.69604 | 12.77745 | 1941 ft | 182 kts | 225° |
| 2026-04-21 20:20 | 55.68700 | 12.76341 | 1693 ft | 166 kts | 226° |
| 2026-04-21 20:20 | 55.67854 | 12.75021 | 1474 ft | 159 kts | 226° |
| 2026-04-21 20:21 | 55.67034 | 12.73744 | 1261 ft | 155 kts | 226° |
| 2026-04-21 20:21 | 55.66229 | 12.72492 | 1052 ft | 153 kts | 226° |
| 2026-04-21 20:21 | 55.65435 | 12.71257 | 834 ft | 150 kts | 225° |
| 2026-04-21 20:21 | 55.64657 | 12.70047 | 650 ft | 148 kts | 223° |
| 2026-04-21 20:22 | 55.63892 | 12.68861 | 423 ft | 145 kts | 223° |
| 2026-04-21 20:22 | 55.62396 | 12.66534 | 34 ft | 141 kts | 223° |
| 2026-04-21 20:22 | 55.61758 | 12.65546 | 17 ft | 85 kts | 221° |
| 2026-04-21 20:23 | 55.61439 | 12.65053 | 18 ft | 35 kts | 221° |
| 2026-04-21 20:23 | 55.61296 | 12.64772 | 18 ft | 30 kts | 238° |
| 2026-04-21 20:23 | 55.61225 | 12.64474 | 17 ft | 16 kts | 251° |
| 2026-04-21 20:23 | 55.61193 | 12.64304 | 17 ft | 14 kts | 251° |
| 2026-04-21 20:24 | 55.61191 | 12.64161 | 17 ft | 10 kts | 297° |
| 2026-04-21 20:24 | 55.61241 | 12.64104 | 18 ft | 8 kts | 352° |
| 2026-04-21 20:24 | 55.61302 | 12.64140 | 19 ft | 13 kts | 31° |
| 2026-04-21 20:24 | 55.61398 | 12.64248 | 17 ft | 17 kts | 33° |
| 2026-04-21 20:25 | 55.61493 | 12.64357 | 17 ft | 16 kts | 33° |
| 2026-04-21 20:25 | 55.61582 | 12.64462 | 17 ft | 15 kts | 32° |
| 2026-04-21 20:25 | 55.61667 | 12.64557 | 18 ft | 14 kts | 33° |
| 2026-04-21 20:25 | 55.61744 | 12.64646 | 19 ft | 12 kts | 33° |
| 2026-04-21 20:26 | 55.61813 | 12.64726 | 17 ft | 11 kts | 33° |
| 2026-04-21 20:26 | 55.61877 | 12.64800 | 17 ft | 11 kts | 33° |
| 2026-04-21 20:26 | 55.61936 | 12.64868 | 18 ft | 10 kts | 33° |
| 2026-04-21 20:26 | 55.61991 | 12.64931 | 17 ft | 9 kts | 33° |
| 2026-04-21 20:27 | 55.62064 | 12.65016 | 18 ft | 15 kts | 33° |
| 2026-04-21 20:27 | 55.62138 | 12.65101 | 17 ft | 9 kts | 33° |
| 2026-04-21 20:27 | 55.62185 | 12.65155 | 18 ft | 7 kts | 34° |
| 2026-04-21 20:27 | 55.62223 | 12.65173 | 17 ft | 5 kts | 350° |
| 2026-04-21 20:28 | 55.62251 | 12.65134 | 17 ft | 5 kts | 309° |
| 2026-04-21 20:28 | 55.62277 | 12.65069 | 17 ft | 8 kts | 304° |
| 2026-04-21 20:28 | 55.62313 | 12.64969 | 17 ft | 11 kts | 301° |
| 2026-04-21 20:28 | 55.62358 | 12.64850 | 17 ft | 13 kts | 305° |
| 2026-04-21 20:29 | 55.62405 | 12.64719 | 17 ft | 13 kts | 303° |
| 2026-04-21 20:29 | 55.62453 | 12.64592 | 17 ft | 12 kts | 303° |
| 2026-04-21 20:29 | 55.62498 | 12.64470 | 17 ft | 12 kts | 303° |
| 2026-04-21 20:29 | 55.62541 | 12.64354 | 18 ft | 11 kts | 303° |
| 2026-04-21 20:30 | 55.62581 | 12.64244 | 19 ft | 10 kts | 303° |
| 2026-04-21 20:30 | 55.62619 | 12.64142 | 17 ft | 10 kts | 303° |
| 2026-04-21 20:30 | 55.62648 | 12.64064 | 17 ft | 4 kts | 303° |
| 2026-04-21 20:30 | 55.62666 | 12.64047 | 17 ft | 2 kts | 358° |
| 2026-04-21 20:31 | 55.62676 | 12.64054 | 17 ft | 1 kts | 19° |
| 2026-04-21 20:31 | 55.62688 | 12.64063 | 17 ft | 3 kts | 26° |
| 2026-04-21 20:31 | 55.62704 | 12.64079 | 17 ft | 2 kts | 31° |
| 2026-04-21 20:31 | 55.62713 | 12.64089 | 19 ft | 1 kts | 32° |
| 2026-04-21 20:32 | 55.62715 | 12.64091 | 18 ft | 0 kts | 32° |
| 2026-04-21 20:32 | 55.62717 | 12.64094 | 18 ft | 0 kts | 32° |
| 2026-04-21 20:32 | 55.62718 | 12.64095 | 18 ft | 0 kts | 32° |